sensor_id;sensor_type;location;lat;lon;timestamp;P1;durP1;ratioP1;P2;durP2;ratioP2
33270;SDS011;53180;51.344;6.152;2022-12-18T00:00:07;15.38;;;13.77;;
33270;SDS011;53180;51.344;6.152;2022-12-18T00:02:36;14.82;;;13.43;;
33270;SDS011;53180;51.344;6.152;2022-12-18T00:05:05;12.40;;;11.30;;
33270;SDS011;53180;51.344;6.152;2022-12-18T00:07:35;13.90;;;12.57;;
33270;SDS011;53180;51.344;6.152;2022-12-18T00:10:04;13.50;;;12.15;;
33270;SDS011;53180;51.344;6.152;2022-12-18T00:12:34;14.00;;;12.68;;
33270;SDS011;53180;51.344;6.152;2022-12-18T00:15:04;11.95;;;11.07;;
33270;SDS011;53180;51.344;6.152;2022-12-18T00:17:33;12.27;;;11.23;;
33270;SDS011;53180;51.344;6.152;2022-12-18T00:20:01;13.55;;;12.23;;
33270;SDS011;53180;51.344;6.152;2022-12-18T00:22:30;17.13;;;12.77;;
33270;SDS011;53180;51.344;6.152;2022-12-18T00:24:58;14.15;;;12.65;;
33270;SDS011;53180;51.344;6.152;2022-12-18T00:27:26;13.75;;;12.45;;
33270;SDS011;53180;51.344;6.152;2022-12-18T00:29:54;12.70;;;11.57;;
33270;SDS011;53180;51.344;6.152;2022-12-18T00:32:24;13.82;;;12.63;;
33270;SDS011;53180;51.344;6.152;2022-12-18T00:34:52;12.77;;;11.45;;
33270;SDS011;53180;51.344;6.152;2022-12-18T00:37:20;13.02;;;11.88;;
33270;SDS011;53180;51.344;6.152;2022-12-18T00:39:49;19.98;;;12.88;;
33270;SDS011;53180;51.344;6.152;2022-12-18T00:42:17;16.00;;;12.05;;
33270;SDS011;53180;51.344;6.152;2022-12-18T00:45:02;13.45;;;12.20;;
33270;SDS011;53180;51.344;6.152;2022-12-18T00:47:39;12.18;;;11.07;;
33270;SDS011;53180;51.344;6.152;2022-12-18T00:50:08;17.08;;;13.25;;
33270;SDS011;53180;51.344;6.152;2022-12-18T00:52:37;13.90;;;12.75;;
33270;SDS011;53180;51.344;6.152;2022-12-18T00:55:05;11.93;;;10.82;;
33270;SDS011;53180;51.344;6.152;2022-12-18T00:57:34;17.10;;;12.35;;
33270;SDS011;53180;51.344;6.152;2022-12-18T01:00:04;12.68;;;11.40;;
33270;SDS011;53180;51.344;6.152;2022-12-18T01:05:05;14.77;;;12.10;;
33270;SDS011;53180;51.344;6.152;2022-12-18T01:07:35;12.85;;;11.57;;
33270;SDS011;53180;51.344;6.152;2022-12-18T01:10:04;15.27;;;13.77;;
33270;SDS011;53180;51.344;6.152;2022-12-18T01:12:33;19.23;;;17.55;;
33270;SDS011;53180;51.344;6.152;2022-12-18T01:15:02;11.95;;;11.02;;
33270;SDS011;53180;51.344;6.152;2022-12-18T01:17:32;14.48;;;12.60;;
33270;SDS011;53180;51.344;6.152;2022-12-18T01:20:00;11.60;;;10.68;;
33270;SDS011;53180;51.344;6.152;2022-12-18T01:22:30;14.30;;;12.98;;
33270;SDS011;53180;51.344;6.152;2022-12-18T01:24:59;12.40;;;11.25;;
33270;SDS011;53180;51.344;6.152;2022-12-18T01:27:27;13.38;;;12.07;;
33270;SDS011;53180;51.344;6.152;2022-12-18T01:29:55;13.80;;;12.52;;
33270;SDS011;53180;51.344;6.152;2022-12-18T01:32:23;11.85;;;10.98;;
33270;SDS011;53180;51.344;6.152;2022-12-18T01:34:52;13.38;;;12.25;;
33270;SDS011;53180;51.344;6.152;2022-12-18T01:37:20;14.45;;;12.32;;
33270;SDS011;53180;51.344;6.152;2022-12-18T01:39:49;14.35;;;13.07;;
33270;SDS011;53180;51.344;6.152;2022-12-18T01:42:20;12.75;;;11.65;;
33270;SDS011;53180;51.344;6.152;2022-12-18T01:44:56;12.77;;;11.85;;
33270;SDS011;53180;51.344;6.152;2022-12-18T01:47:33;11.70;;;10.80;;
33270;SDS011;53180;51.344;6.152;2022-12-18T01:50:07;14.13;;;11.27;;
33270;SDS011;53180;51.344;6.152;2022-12-18T01:52:39;13.65;;;12.25;;
33270;SDS011;53180;51.344;6.152;2022-12-18T01:55:10;14.13;;;12.13;;
33270;SDS011;53180;51.344;6.152;2022-12-18T01:57:41;12.02;;;10.93;;
33270;SDS011;53180;51.344;6.152;2022-12-18T02:00:10;14.15;;;11.07;;
33270;SDS011;53180;51.344;6.152;2022-12-18T02:02:43;14.38;;;11.93;;
33270;SDS011;53180;51.344;6.152;2022-12-18T02:05:16;13.57;;;12.25;;
33270;SDS011;53180;51.344;6.152;2022-12-18T02:07:51;15.10;;;11.85;;
33270;SDS011;53180;51.344;6.152;2022-12-18T02:10:35;19.83;;;10.75;;
33270;SDS011;53180;51.344;6.152;2022-12-18T02:13:16;13.93;;;12.75;;
33270;SDS011;53180;51.344;6.152;2022-12-18T02:15:54;12.45;;;11.32;;
33270;SDS011;53180;51.344;6.152;2022-12-18T02:18:30;11.48;;;10.65;;
33270;SDS011;53180;51.344;6.152;2022-12-18T02:21:07;13.25;;;12.05;;
33270;SDS011;53180;51.344;6.152;2022-12-18T02:23:45;10.82;;;9.93;;
33270;SDS011;53180;51.344;6.152;2022-12-18T02:26:21;14.63;;;12.93;;
33270;SDS011;53180;51.344;6.152;2022-12-18T02:28:55;13.15;;;11.85;;
33270;SDS011;53180;51.344;6.152;2022-12-18T02:31:29;12.10;;;11.25;;
33270;SDS011;53180;51.344;6.152;2022-12-18T02:34:04;12.00;;;10.90;;
33270;SDS011;53180;51.344;6.152;2022-12-18T02:36:36;13.07;;;11.77;;
33270;SDS011;53180;51.344;6.152;2022-12-18T02:39:09;13.07;;;11.85;;
33270;SDS011;53180;51.344;6.152;2022-12-18T02:41:40;13.07;;;10.70;;
33270;SDS011;53180;51.344;6.152;2022-12-18T02:44:09;12.63;;;11.67;;
33270;SDS011;53180;51.344;6.152;2022-12-18T02:46:40;12.18;;;11.20;;
33270;SDS011;53180;51.344;6.152;2022-12-18T02:49:13;11.50;;;10.63;;
33270;SDS011;53180;51.344;6.152;2022-12-18T02:51:55;15.75;;;11.90;;
33270;SDS011;53180;51.344;6.152;2022-12-18T02:54:35;13.40;;;12.13;;
33270;SDS011;53180;51.344;6.152;2022-12-18T02:57:20;14.05;;;12.73;;
33270;SDS011;53180;51.344;6.152;2022-12-18T02:59:58;12.20;;;11.25;;
33270;SDS011;53180;51.344;6.152;2022-12-18T03:02:33;12.15;;;11.10;;
33270;SDS011;53180;51.344;6.152;2022-12-18T03:05:10;12.55;;;11.50;;
33270;SDS011;53180;51.344;6.152;2022-12-18T03:07:44;12.45;;;11.48;;
33270;SDS011;53180;51.344;6.152;2022-12-18T03:10:19;12.30;;;11.15;;
33270;SDS011;53180;51.344;6.152;2022-12-18T03:12:54;14.18;;;12.93;;
33270;SDS011;53180;51.344;6.152;2022-12-18T03:15:28;13.65;;;12.55;;
33270;SDS011;53180;51.344;6.152;2022-12-18T03:18:02;12.60;;;10.48;;
33270;SDS011;53180;51.344;6.152;2022-12-18T03:20:35;11.77;;;10.65;;
33270;SDS011;53180;51.344;6.152;2022-12-18T03:23:09;12.77;;;11.63;;
33270;SDS011;53180;51.344;6.152;2022-12-18T03:25:42;12.00;;;11.00;;
33270;SDS011;53180;51.344;6.152;2022-12-18T03:28:14;15.50;;;13.88;;
33270;SDS011;53180;51.344;6.152;2022-12-18T03:30:47;12.57;;;11.48;;
33270;SDS011;53180;51.344;6.152;2022-12-18T03:33:23;13.20;;;11.98;;
33270;SDS011;53180;51.344;6.152;2022-12-18T03:35:55;15.23;;;13.65;;
33270;SDS011;53180;51.344;6.152;2022-12-18T03:38:24;13.13;;;12.02;;
33270;SDS011;53180;51.344;6.152;2022-12-18T03:40:58;12.65;;;11.60;;
33270;SDS011;53180;51.344;6.152;2022-12-18T03:43:38;12.25;;;11.15;;
33270;SDS011;53180;51.344;6.152;2022-12-18T03:46:17;12.85;;;11.70;;
33270;SDS011;53180;51.344;6.152;2022-12-18T03:48:57;12.73;;;11.63;;
33270;SDS011;53180;51.344;6.152;2022-12-18T03:51:31;12.27;;;11.20;;
33270;SDS011;53180;51.344;6.152;2022-12-18T03:54:07;12.20;;;11.23;;
33270;SDS011;53180;51.344;6.152;2022-12-18T03:56:38;13.68;;;12.65;;
33270;SDS011;53180;51.344;6.152;2022-12-18T03:59:17;13.82;;;12.55;;
33270;SDS011;53180;51.344;6.152;2022-12-18T04:01:47;15.73;;;11.07;;
33270;SDS011;53180;51.344;6.152;2022-12-18T04:04:19;16.05;;;12.90;;
33270;SDS011;53180;51.344;6.152;2022-12-18T04:06:49;13.18;;;11.85;;
33270;SDS011;53180;51.344;6.152;2022-12-18T04:09:18;12.43;;;11.43;;
33270;SDS011;53180;51.344;6.152;2022-12-18T04:11:48;18.85;;;12.40;;
33270;SDS011;53180;51.344;6.152;2022-12-18T04:14:17;12.73;;;11.68;;
33270;SDS011;53180;51.344;6.152;2022-12-18T04:16:46;13.55;;;12.10;;
33270;SDS011;53180;51.344;6.152;2022-12-18T04:19:14;12.00;;;11.10;;
33270;SDS011;53180;51.344;6.152;2022-12-18T04:21:42;12.98;;;11.98;;
33270;SDS011;53180;51.344;6.152;2022-12-18T04:24:11;13.68;;;12.57;;
33270;SDS011;53180;51.344;6.152;2022-12-18T04:26:39;12.45;;;11.40;;
33270;SDS011;53180;51.344;6.152;2022-12-18T04:29:07;14.10;;;12.45;;
33270;SDS011;53180;51.344;6.152;2022-12-18T04:31:37;12.38;;;11.35;;
33270;SDS011;53180;51.344;6.152;2022-12-18T04:34:05;12.73;;;11.73;;
33270;SDS011;53180;51.344;6.152;2022-12-18T04:36:33;13.45;;;12.30;;
33270;SDS011;53180;51.344;6.152;2022-12-18T04:39:01;13.48;;;12.27;;
33270;SDS011;53180;51.344;6.152;2022-12-18T04:41:30;13.73;;;12.60;;
33270;SDS011;53180;51.344;6.152;2022-12-18T04:43:58;11.80;;;10.70;;
33270;SDS011;53180;51.344;6.152;2022-12-18T04:46:26;18.45;;;12.80;;
33270;SDS011;53180;51.344;6.152;2022-12-18T04:48:56;12.52;;;11.52;;
33270;SDS011;53180;51.344;6.152;2022-12-18T04:51:24;12.07;;;11.07;;
33270;SDS011;53180;51.344;6.152;2022-12-18T04:53:52;12.10;;;11.10;;
33270;SDS011;53180;51.344;6.152;2022-12-18T04:56:22;13.00;;;11.30;;
33270;SDS011;53180;51.344;6.152;2022-12-18T04:58:51;15.13;;;12.52;;
33270;SDS011;53180;51.344;6.152;2022-12-18T05:01:19;12.60;;;11.63;;
33270;SDS011;53180;51.344;6.152;2022-12-18T05:03:47;13.82;;;12.70;;
33270;SDS011;53180;51.344;6.152;2022-12-18T05:06:17;13.88;;;12.43;;
33270;SDS011;53180;51.344;6.152;2022-12-18T05:08:45;12.90;;;11.48;;
33270;SDS011;53180;51.344;6.152;2022-12-18T05:11:14;12.40;;;11.48;;
33270;SDS011;53180;51.344;6.152;2022-12-18T05:13:43;11.63;;;10.82;;
33270;SDS011;53180;51.344;6.152;2022-12-18T05:16:12;12.73;;;11.52;;
33270;SDS011;53180;51.344;6.152;2022-12-18T05:18:41;13.52;;;12.23;;
33270;SDS011;53180;51.344;6.152;2022-12-18T05:21:09;12.70;;;11.80;;
33270;SDS011;53180;51.344;6.152;2022-12-18T05:23:39;13.60;;;12.25;;
33270;SDS011;53180;51.344;6.152;2022-12-18T05:26:08;12.32;;;11.38;;
33270;SDS011;53180;51.344;6.152;2022-12-18T05:28:42;11.55;;;10.65;;
33270;SDS011;53180;51.344;6.152;2022-12-18T05:31:11;12.15;;;11.13;;
33270;SDS011;53180;51.344;6.152;2022-12-18T05:33:39;14.70;;;12.20;;
33270;SDS011;53180;51.344;6.152;2022-12-18T05:36:09;17.88;;;11.27;;
33270;SDS011;53180;51.344;6.152;2022-12-18T05:38:38;15.00;;;11.75;;
33270;SDS011;53180;51.344;6.152;2022-12-18T05:41:08;11.70;;;10.50;;
33270;SDS011;53180;51.344;6.152;2022-12-18T05:43:37;14.10;;;12.65;;
33270;SDS011;53180;51.344;6.152;2022-12-18T05:46:08;14.10;;;12.90;;
33270;SDS011;53180;51.344;6.152;2022-12-18T05:48:40;13.00;;;11.85;;
33270;SDS011;53180;51.344;6.152;2022-12-18T05:51:09;12.65;;;11.00;;
33270;SDS011;53180;51.344;6.152;2022-12-18T05:53:42;11.18;;;10.27;;
33270;SDS011;53180;51.344;6.152;2022-12-18T05:56:12;9.82;;;8.93;;
33270;SDS011;53180;51.344;6.152;2022-12-18T05:58:51;13.00;;;11.90;;
33270;SDS011;53180;51.344;6.152;2022-12-18T06:01:21;12.27;;;11.18;;
33270;SDS011;53180;51.344;6.152;2022-12-18T06:03:52;13.90;;;12.48;;
33270;SDS011;53180;51.344;6.152;2022-12-18T06:06:21;14.50;;;13.13;;
33270;SDS011;53180;51.344;6.152;2022-12-18T06:08:53;10.98;;;10.20;;
33270;SDS011;53180;51.344;6.152;2022-12-18T06:11:23;11.88;;;11.07;;
33270;SDS011;53180;51.344;6.152;2022-12-18T06:13:54;12.27;;;11.13;;
33270;SDS011;53180;51.344;6.152;2022-12-18T06:16:25;14.00;;;12.77;;
33270;SDS011;53180;51.344;6.152;2022-12-18T06:18:55;16.55;;;11.45;;
33270;SDS011;53180;51.344;6.152;2022-12-18T06:21:25;12.85;;;11.68;;
33270;SDS011;53180;51.344;6.152;2022-12-18T06:23:54;11.07;;;10.25;;
33270;SDS011;53180;51.344;6.152;2022-12-18T06:26:23;12.85;;;11.82;;
33270;SDS011;53180;51.344;6.152;2022-12-18T06:28:54;12.73;;;11.63;;
33270;SDS011;53180;51.344;6.152;2022-12-18T06:31:23;13.23;;;11.88;;
33270;SDS011;53180;51.344;6.152;2022-12-18T06:33:51;11.93;;;11.02;;
33270;SDS011;53180;51.344;6.152;2022-12-18T06:36:19;10.95;;;10.15;;
33270;SDS011;53180;51.344;6.152;2022-12-18T06:38:48;12.93;;;11.82;;
33270;SDS011;53180;51.344;6.152;2022-12-18T06:41:19;12.07;;;11.13;;
33270;SDS011;53180;51.344;6.152;2022-12-18T06:43:48;11.52;;;10.60;;
33270;SDS011;53180;51.344;6.152;2022-12-18T06:46:22;12.65;;;11.55;;
33270;SDS011;53180;51.344;6.152;2022-12-18T06:48:50;11.18;;;10.38;;
33270;SDS011;53180;51.344;6.152;2022-12-18T06:51:19;13.02;;;11.88;;
33270;SDS011;53180;51.344;6.152;2022-12-18T06:53:49;13.32;;;12.05;;
33270;SDS011;53180;51.344;6.152;2022-12-18T06:56:19;15.02;;;11.70;;
33270;SDS011;53180;51.344;6.152;2022-12-18T06:58:47;12.32;;;11.32;;
33270;SDS011;53180;51.344;6.152;2022-12-18T07:01:15;14.35;;;13.02;;
33270;SDS011;53180;51.344;6.152;2022-12-18T07:03:44;18.65;;;14.02;;
33270;SDS011;53180;51.344;6.152;2022-12-18T07:06:13;12.52;;;11.63;;
33270;SDS011;53180;51.344;6.152;2022-12-18T07:08:43;14.57;;;13.00;;
33270;SDS011;53180;51.344;6.152;2022-12-18T07:11:12;10.85;;;9.95;;
33270;SDS011;53180;51.344;6.152;2022-12-18T07:13:42;13.07;;;10.95;;
33270;SDS011;53180;51.344;6.152;2022-12-18T07:16:11;14.38;;;13.00;;
33270;SDS011;53180;51.344;6.152;2022-12-18T07:18:49;11.20;;;10.32;;
33270;SDS011;53180;51.344;6.152;2022-12-18T07:21:18;17.10;;;14.10;;
33270;SDS011;53180;51.344;6.152;2022-12-18T07:23:47;16.15;;;11.98;;
33270;SDS011;53180;51.344;6.152;2022-12-18T07:26:16;12.48;;;11.18;;
33270;SDS011;53180;51.344;6.152;2022-12-18T07:28:47;14.20;;;13.02;;
33270;SDS011;53180;51.344;6.152;2022-12-18T07:31:18;13.98;;;12.27;;
33270;SDS011;53180;51.344;6.152;2022-12-18T07:36:16;13.80;;;12.65;;
33270;SDS011;53180;51.344;6.152;2022-12-18T07:38:46;12.52;;;11.52;;
33270;SDS011;53180;51.344;6.152;2022-12-18T07:41:15;10.95;;;10.05;;
33270;SDS011;53180;51.344;6.152;2022-12-18T07:43:44;13.38;;;12.05;;
33270;SDS011;53180;51.344;6.152;2022-12-18T07:46:15;12.63;;;11.65;;
33270;SDS011;53180;51.344;6.152;2022-12-18T07:48:44;13.15;;;11.85;;
33270;SDS011;53180;51.344;6.152;2022-12-18T07:51:15;12.60;;;11.43;;
33270;SDS011;53180;51.344;6.152;2022-12-18T07:53:45;12.73;;;11.65;;
33270;SDS011;53180;51.344;6.152;2022-12-18T07:56:17;12.15;;;11.15;;
33270;SDS011;53180;51.344;6.152;2022-12-18T07:58:56;13.40;;;11.82;;
33270;SDS011;53180;51.344;6.152;2022-12-18T08:01:27;13.45;;;12.18;;
33270;SDS011;53180;51.344;6.152;2022-12-18T08:03:55;13.23;;;12.00;;
33270;SDS011;53180;51.344;6.152;2022-12-18T08:06:24;12.52;;;11.40;;
33270;SDS011;53180;51.344;6.152;2022-12-18T08:08:53;13.75;;;12.23;;
33270;SDS011;53180;51.344;6.152;2022-12-18T08:11:23;13.18;;;12.02;;
33270;SDS011;53180;51.344;6.152;2022-12-18T08:13:54;12.50;;;11.40;;
33270;SDS011;53180;51.344;6.152;2022-12-18T08:16:23;12.38;;;11.18;;
33270;SDS011;53180;51.344;6.152;2022-12-18T08:18:53;13.30;;;11.68;;
33270;SDS011;53180;51.344;6.152;2022-12-18T08:21:22;11.68;;;10.55;;
33270;SDS011;53180;51.344;6.152;2022-12-18T08:26:30;12.38;;;11.38;;
33270;SDS011;53180;51.344;6.152;2022-12-18T08:28:59;12.77;;;11.27;;
33270;SDS011;53180;51.344;6.152;2022-12-18T08:31:28;24.08;;;13.82;;
33270;SDS011;53180;51.344;6.152;2022-12-18T08:33:59;12.38;;;11.27;;
33270;SDS011;53180;51.344;6.152;2022-12-18T08:36:27;14.60;;;11.45;;
33270;SDS011;53180;51.344;6.152;2022-12-18T08:38:56;12.40;;;11.40;;
33270;SDS011;53180;51.344;6.152;2022-12-18T08:41:25;12.75;;;11.63;;
33270;SDS011;53180;51.344;6.152;2022-12-18T08:43:53;12.98;;;11.85;;
33270;SDS011;53180;51.344;6.152;2022-12-18T08:46:40;13.13;;;10.77;;
33270;SDS011;53180;51.344;6.152;2022-12-18T08:49:12;11.65;;;10.68;;
33270;SDS011;53180;51.344;6.152;2022-12-18T08:51:40;10.87;;;9.93;;
33270;SDS011;53180;51.344;6.152;2022-12-18T08:54:09;12.27;;;11.30;;
33270;SDS011;53180;51.344;6.152;2022-12-18T08:59:08;11.50;;;10.40;;
33270;SDS011;53180;51.344;6.152;2022-12-18T09:01:44;11.77;;;10.75;;
33270;SDS011;53180;51.344;6.152;2022-12-18T09:04:15;10.60;;;9.80;;
33270;SDS011;53180;51.344;6.152;2022-12-18T09:06:43;10.57;;;8.95;;
33270;SDS011;53180;51.344;6.152;2022-12-18T09:09:11;11.00;;;10.07;;
33270;SDS011;53180;51.344;6.152;2022-12-18T09:11:40;11.13;;;10.13;;
33270;SDS011;53180;51.344;6.152;2022-12-18T09:14:10;10.48;;;9.57;;
33270;SDS011;53180;51.344;6.152;2022-12-18T09:16:38;10.32;;;9.55;;
33270;SDS011;53180;51.344;6.152;2022-12-18T09:19:06;10.57;;;9.55;;
33270;SDS011;53180;51.344;6.152;2022-12-18T09:21:37;12.63;;;11.48;;
33270;SDS011;53180;51.344;6.152;2022-12-18T09:24:13;21.83;;;15.35;;
33270;SDS011;53180;51.344;6.152;2022-12-18T09:26:43;10.95;;;10.05;;
33270;SDS011;53180;51.344;6.152;2022-12-18T09:29:13;11.80;;;10.43;;
33270;SDS011;53180;51.344;6.152;2022-12-18T09:31:44;11.30;;;10.15;;
33270;SDS011;53180;51.344;6.152;2022-12-18T09:34:12;8.98;;;8.38;;
33270;SDS011;53180;51.344;6.152;2022-12-18T09:36:42;9.63;;;8.85;;
33270;SDS011;53180;51.344;6.152;2022-12-18T09:39:10;11.88;;;10.70;;
33270;SDS011;53180;51.344;6.152;2022-12-18T09:41:45;11.88;;;9.15;;
33270;SDS011;53180;51.344;6.152;2022-12-18T09:44:21;10.95;;;10.07;;
33270;SDS011;53180;51.344;6.152;2022-12-18T09:46:54;10.30;;;9.30;;
33270;SDS011;53180;51.344;6.152;2022-12-18T09:49:34;10.48;;;9.48;;
33270;SDS011;53180;51.344;6.152;2022-12-18T09:52:11;9.35;;;8.63;;
33270;SDS011;53180;51.344;6.152;2022-12-18T09:54:46;11.02;;;9.95;;
33270;SDS011;53180;51.344;6.152;2022-12-18T09:57:22;26.52;;;10.00;;
33270;SDS011;53180;51.344;6.152;2022-12-18T09:59:53;8.23;;;7.63;;
33270;SDS011;53180;51.344;6.152;2022-12-18T10:02:25;10.43;;;9.63;;
33270;SDS011;53180;51.344;6.152;2022-12-18T10:04:57;11.13;;;10.02;;
33270;SDS011;53180;51.344;6.152;2022-12-18T10:07:45;9.13;;;8.45;;
33270;SDS011;53180;51.344;6.152;2022-12-18T10:10:23;9.13;;;8.48;;
33270;SDS011;53180;51.344;6.152;2022-12-18T10:13:02;9.95;;;9.10;;
33270;SDS011;53180;51.344;6.152;2022-12-18T10:15:46;12.23;;;9.82;;
33270;SDS011;53180;51.344;6.152;2022-12-18T10:18:29;10.52;;;9.10;;
33270;SDS011;53180;51.344;6.152;2022-12-18T10:21:15;9.55;;;8.68;;
33270;SDS011;53180;51.344;6.152;2022-12-18T10:23:54;9.82;;;8.93;;
33270;SDS011;53180;51.344;6.152;2022-12-18T10:26:39;10.98;;;8.18;;
33270;SDS011;53180;51.344;6.152;2022-12-18T10:29:09;9.93;;;9.13;;
33270;SDS011;53180;51.344;6.152;2022-12-18T10:31:40;10.15;;;9.25;;
33270;SDS011;53180;51.344;6.152;2022-12-18T10:34:09;11.13;;;9.90;;
33270;SDS011;53180;51.344;6.152;2022-12-18T10:36:40;10.02;;;9.02;;
33270;SDS011;53180;51.344;6.152;2022-12-18T10:39:19;9.45;;;8.55;;
33270;SDS011;53180;51.344;6.152;2022-12-18T10:41:49;10.85;;;9.27;;
33270;SDS011;53180;51.344;6.152;2022-12-18T10:44:18;10.75;;;9.80;;
33270;SDS011;53180;51.344;6.152;2022-12-18T10:46:48;9.70;;;8.90;;
33270;SDS011;53180;51.344;6.152;2022-12-18T10:49:23;9.98;;;9.07;;
33270;SDS011;53180;51.344;6.152;2022-12-18T10:52:04;11.05;;;10.02;;
33270;SDS011;53180;51.344;6.152;2022-12-18T10:54:36;8.57;;;7.78;;
33270;SDS011;53180;51.344;6.152;2022-12-18T10:57:15;10.18;;;9.15;;
33270;SDS011;53180;51.344;6.152;2022-12-18T10:59:59;9.73;;;8.93;;
33270;SDS011;53180;51.344;6.152;2022-12-18T11:02:47;10.63;;;9.50;;
33270;SDS011;53180;51.344;6.152;2022-12-18T11:05:23;9.18;;;8.40;;
33270;SDS011;53180;51.344;6.152;2022-12-18T11:07:55;9.23;;;8.50;;
33270;SDS011;53180;51.344;6.152;2022-12-18T11:10:28;9.30;;;8.55;;
33270;SDS011;53180;51.344;6.152;2022-12-18T11:13:11;8.77;;;7.97;;
33270;SDS011;53180;51.344;6.152;2022-12-18T11:15:45;9.25;;;8.38;;
33270;SDS011;53180;51.344;6.152;2022-12-18T11:18:16;10.05;;;9.15;;
33270;SDS011;53180;51.344;6.152;2022-12-18T11:20:51;15.20;;;9.48;;
33270;SDS011;53180;51.344;6.152;2022-12-18T11:23:24;10.73;;;9.70;;
33270;SDS011;53180;51.344;6.152;2022-12-18T11:25:57;10.85;;;9.77;;
33270;SDS011;53180;51.344;6.152;2022-12-18T11:28:29;9.48;;;8.68;;
33270;SDS011;53180;51.344;6.152;2022-12-18T11:31:09;15.55;;;10.02;;
33270;SDS011;53180;51.344;6.152;2022-12-18T11:33:53;8.27;;;7.38;;
33270;SDS011;53180;51.344;6.152;2022-12-18T11:36:48;9.48;;;8.68;;
33270;SDS011;53180;51.344;6.152;2022-12-18T11:39:17;10.35;;;9.25;;
33270;SDS011;53180;51.344;6.152;2022-12-18T11:41:54;10.70;;;9.65;;
33270;SDS011;53180;51.344;6.152;2022-12-18T11:44:40;9.20;;;8.43;;
33270;SDS011;53180;51.344;6.152;2022-12-18T11:47:16;12.15;;;9.13;;
33270;SDS011;53180;51.344;6.152;2022-12-18T11:49:53;20.50;;;9.60;;
33270;SDS011;53180;51.344;6.152;2022-12-18T11:52:26;9.20;;;8.40;;
33270;SDS011;53180;51.344;6.152;2022-12-18T11:55:01;9.45;;;8.55;;
33270;SDS011;53180;51.344;6.152;2022-12-18T11:57:41;13.40;;;9.52;;
33270;SDS011;53180;51.344;6.152;2022-12-18T12:00:19;8.80;;;8.10;;
33270;SDS011;53180;51.344;6.152;2022-12-18T12:03:00;11.13;;;8.25;;
33270;SDS011;53180;51.344;6.152;2022-12-18T12:05:53;10.07;;;9.02;;
33270;SDS011;53180;51.344;6.152;2022-12-18T12:08:36;9.15;;;8.25;;
33270;SDS011;53180;51.344;6.152;2022-12-18T12:11:18;9.15;;;8.43;;
33270;SDS011;53180;51.344;6.152;2022-12-18T12:13:59;9.65;;;8.77;;
33270;SDS011;53180;51.344;6.152;2022-12-18T12:16:41;8.98;;;8.07;;
33270;SDS011;53180;51.344;6.152;2022-12-18T12:19:23;9.43;;;8.55;;
33270;SDS011;53180;51.344;6.152;2022-12-18T12:22:05;8.88;;;8.07;;
33270;SDS011;53180;51.344;6.152;2022-12-18T12:24:50;9.25;;;8.05;;
33270;SDS011;53180;51.344;6.152;2022-12-18T12:27:33;8.48;;;7.68;;
33270;SDS011;53180;51.344;6.152;2022-12-18T12:30:10;9.70;;;8.80;;
33270;SDS011;53180;51.344;6.152;2022-12-18T12:32:53;9.77;;;8.75;;
33270;SDS011;53180;51.344;6.152;2022-12-18T12:35:39;17.02;;;12.85;;
33270;SDS011;53180;51.344;6.152;2022-12-18T12:38:17;10.85;;;9.00;;
33270;SDS011;53180;51.344;6.152;2022-12-18T12:40:53;10.80;;;9.73;;
33270;SDS011;53180;51.344;6.152;2022-12-18T12:43:32;9.93;;;8.80;;
33270;SDS011;53180;51.344;6.152;2022-12-18T12:46:16;9.25;;;8.40;;
33270;SDS011;53180;51.344;6.152;2022-12-18T12:48:54;8.77;;;8.07;;
33270;SDS011;53180;51.344;6.152;2022-12-18T12:51:26;9.80;;;8.80;;
33270;SDS011;53180;51.344;6.152;2022-12-18T12:54:00;8.70;;;8.00;;
33270;SDS011;53180;51.344;6.152;2022-12-18T12:56:37;13.25;;;9.20;;
33270;SDS011;53180;51.344;6.152;2022-12-18T12:59:13;9.70;;;8.30;;
33270;SDS011;53180;51.344;6.152;2022-12-18T13:04:30;8.07;;;7.38;;
33270;SDS011;53180;51.344;6.152;2022-12-18T13:07:04;9.05;;;8.25;;
33270;SDS011;53180;51.344;6.152;2022-12-18T13:12:53;8.18;;;7.53;;
33270;SDS011;53180;51.344;6.152;2022-12-18T13:15:23;9.10;;;8.25;;
33270;SDS011;53180;51.344;6.152;2022-12-18T13:18:05;9.02;;;8.20;;
33270;SDS011;53180;51.344;6.152;2022-12-18T13:20:46;9.65;;;8.65;;
33270;SDS011;53180;51.344;6.152;2022-12-18T13:23:29;9.45;;;8.38;;
33270;SDS011;53180;51.344;6.152;2022-12-18T13:26:29;9.88;;;8.90;;
33270;SDS011;53180;51.344;6.152;2022-12-18T13:29:01;9.93;;;9.13;;
33270;SDS011;53180;51.344;6.152;2022-12-18T13:34:48;11.20;;;9.60;;
33270;SDS011;53180;51.344;6.152;2022-12-18T13:43:30;15.52;;;9.40;;
33270;SDS011;53180;51.344;6.152;2022-12-18T13:46:16;13.02;;;9.07;;
33270;SDS011;53180;51.344;6.152;2022-12-18T13:48:50;10.20;;;9.20;;
33270;SDS011;53180;51.344;6.152;2022-12-18T13:51:23;10.40;;;9.38;;
33270;SDS011;53180;51.344;6.152;2022-12-18T13:53:56;9.45;;;8.45;;
33270;SDS011;53180;51.344;6.152;2022-12-18T13:56:27;10.52;;;8.45;;
33270;SDS011;53180;51.344;6.152;2022-12-18T13:59:17;8.98;;;8.18;;
33270;SDS011;53180;51.344;6.152;2022-12-18T14:01:51;9.18;;;8.32;;
33270;SDS011;53180;51.344;6.152;2022-12-18T14:04:23;9.30;;;8.38;;
33270;SDS011;53180;51.344;6.152;2022-12-18T14:06:56;10.70;;;9.70;;
33270;SDS011;53180;51.344;6.152;2022-12-18T14:09:34;9.23;;;8.30;;
33270;SDS011;53180;51.344;6.152;2022-12-18T14:12:06;9.60;;;8.73;;
33270;SDS011;53180;51.344;6.152;2022-12-18T14:15:00;13.13;;;8.95;;
33270;SDS011;53180;51.344;6.152;2022-12-18T14:17:29;11.23;;;9.50;;
33270;SDS011;53180;51.344;6.152;2022-12-18T14:20:00;10.57;;;9.55;;
33270;SDS011;53180;51.344;6.152;2022-12-18T14:22:28;9.10;;;8.30;;
33270;SDS011;53180;51.344;6.152;2022-12-18T14:25:15;9.52;;;8.70;;
33270;SDS011;53180;51.344;6.152;2022-12-18T14:27:47;10.20;;;9.30;;
33270;SDS011;53180;51.344;6.152;2022-12-18T14:30:23;9.45;;;8.65;;
33270;SDS011;53180;51.344;6.152;2022-12-18T14:33:01;10.10;;;8.85;;
33270;SDS011;53180;51.344;6.152;2022-12-18T14:35:30;10.15;;;8.02;;
33270;SDS011;53180;51.344;6.152;2022-12-18T14:38:09;9.52;;;8.55;;
33270;SDS011;53180;51.344;6.152;2022-12-18T14:40:48;9.70;;;8.52;;
33270;SDS011;53180;51.344;6.152;2022-12-18T14:43:21;8.43;;;7.63;;
33270;SDS011;53180;51.344;6.152;2022-12-18T14:45:49;8.52;;;7.82;;
33270;SDS011;53180;51.344;6.152;2022-12-18T14:48:19;9.38;;;8.57;;
33270;SDS011;53180;51.344;6.152;2022-12-18T14:50:57;10.27;;;9.02;;
33270;SDS011;53180;51.344;6.152;2022-12-18T14:53:35;12.23;;;9.52;;
33270;SDS011;53180;51.344;6.152;2022-12-18T14:56:16;9.38;;;8.30;;
33270;SDS011;53180;51.344;6.152;2022-12-18T14:58:47;10.70;;;9.00;;
33270;SDS011;53180;51.344;6.152;2022-12-18T15:01:20;16.45;;;8.57;;
33270;SDS011;53180;51.344;6.152;2022-12-18T15:03:52;11.05;;;9.10;;
33270;SDS011;53180;51.344;6.152;2022-12-18T15:06:26;10.00;;;9.07;;
33270;SDS011;53180;51.344;6.152;2022-12-18T15:09:00;8.05;;;7.38;;
33270;SDS011;53180;51.344;6.152;2022-12-18T15:11:43;9.55;;;8.65;;
33270;SDS011;53180;51.344;6.152;2022-12-18T15:17:14;9.90;;;8.60;;
33270;SDS011;53180;51.344;6.152;2022-12-18T15:19:46;9.82;;;8.77;;
33270;SDS011;53180;51.344;6.152;2022-12-18T15:22:17;10.65;;;9.45;;
33270;SDS011;53180;51.344;6.152;2022-12-18T15:24:49;9.23;;;8.43;;
33270;SDS011;53180;51.344;6.152;2022-12-18T15:27:24;11.07;;;9.90;;
33270;SDS011;53180;51.344;6.152;2022-12-18T15:30:00;9.93;;;9.02;;